AirNav   Jet Aviation Boston
 
 1572 users online  

O13 Haddock Field Airport
Erick, Oklahoma, USA

GOING TO ERICK?


FAA INFORMATION EFFECTIVE 29 MARCH 2018

Location

FAA Identifier: O13
Lat/Long: 35-12-02.7000N / 099-52-51.8000W
35-12.045000N / 099-52.863333W
35.2007500 / -99.8810556
(estimated)
Elevation: 2097 ft. / 639 m (estimated)
Variation: 08E (1985)
From city: 1 mile SW of ERICK, OK
Time zone: UTC -5 (UTC -6 during Standard Time)
Zip code: 73645

Airport Operations

Airport use: Open to the public
Activation date: 03/1946
Control tower: no
ARTCC: FORT WORTH CENTER
FSS: MC ALESTER FLIGHT SERVICE STATION
NOTAMs facility: MLC (NOTAM-D service available)
Attendance: UNATNDD
Wind indicator: yes
Segmented circle: no

Airport Communications

CTAF: 122.9

Nearby radio navigation aids

VOR radial/distance  VOR name  Freq  Var
BFVr261/33.2BURNS FLAT VORTAC110.0005E

Airport Services

Airframe service: NONE
Powerplant service: NONE
Bottled oxygen: NONE
Bulk oxygen: NONE

Runway Information

Runway 17/35

Dimensions: 2650 x 35 ft. / 808 x 11 m
Surface: asphalt, in fair condition
Weight bearing capacity: 
Single wheel: 4.0
RUNWAY 17  RUNWAY 35
Latitude: 35-12.262603N35-11.826092N
Longitude: 099-52.875362W099-52.851893W
Elevation: 2092.0 ft.2097.0 ft.
Gradient: 0.2%0.2%
Traffic pattern: leftleft
Runway heading: 169 magnetic, 177 true349 magnetic, 357 true

Airport Ownership and Management from official FAA records

Ownership: Publicly-owned
Owner: CITY OF ERICK
CITY HALL, P. O. BOX 25
ERICK, OK 73645
Phone 580-526-3924
Manager: TODD SUTTON
17212 E 1250 RD, P. O. BOX 25
ERICK, OK 73645
Phone (580) 243-9190
AIRPORT BOARD CHAIRMAN.

Airport Operational Statistics

Aircraft based on the field: 6
Single engine airplanes: 6
    
Aircraft operations: avg 33/month *
62% local general aviation
25% transient general aviation
12% military
* for 12-month period ending 05 October 2017

Additional Remarks

A58-35 5 FT BRUSH AND HILL 168 FT FROM RUNWAY END.
A58-17 4 FT FENCE AT 65 FT; 15 FT ROAD AT 70 FT; 4 FT TERRAIN RISE AT 106 FT, 8 FT FENCE AT 120 FT.
MILITARY HELICOPTER TRAFFIC ON & INVOF ARPT.

Instrument Procedures

There are no published instrument procedures at O13.

Some nearby airports with instrument procedures:

T59 - Wheeler Municipal Airport (22 nm NW)
2K4 - Scott Field Airport (25 nm SE)
KELK - Elk City Regional Business Airport (28 nm NE)
KCSM - Clinton-Sherman Airport (34 nm E)
KAXS - Altus/Quartz Mountain Regional Airport (40 nm SE)
 
Loc | Ops | Rwys | IFR | FBO | Links
Com | Nav | Svcs | Stats | Notes

AirNav Hotels Sweepstakes
 
Area around O13 (Haddock Field Airport)
 
Road maps at: MapQuest Bing Google
 
Aerial photo
No photo
 
Sectional chart

 
Airport distance calculator
Flying to Haddock Field Airport? Find the distance to fly.

From to O13

Sunrise and sunset
Times for 25-Apr-2018
 Local
(UTC-5)
 Zulu
(UTC)
Morning civil twilight06:2911:29
Sunrise06:5611:56
Sunset20:1901:19
Evening civil twilight20:4601:46

Current date and time
Zulu (UTC)  25-Apr-2018 14:59:38
Local (UTC-5)  25-Apr-2018 09:59:38
 
METAR
KELK 
28nm NE 
251435Z AUTO 33015G19KT 10SM SCT010 BKN075 OVC090 06/04 A3028 RMK AO2 T00560043
KCSM 
35nm E 
251453Z 33014G21KT 10SM BKN011 OVC085 06/04 A3029 RMK AO2 RAE38 SLP255 P0000 60025 T00560044 51018
KAXS 
40nm SE 
251435Z AUTO 35015G19KT 7SM -VCTSRA SCT012 SCT040 OVC060 07/06 A3031 RMK AO2 LTG DSNT E THRU S P0004 T00730055
KHBR 
43nm E 
251453Z AUTO 34015KT 8SM -RA SCT012 BKN050 OVC070 07/06 A3029 RMK AO2 SLP255 P0008 60028 T00720056 53005
KLTS 
44nm SE 
251446Z AUTO 34009KT 10SM RA BKN013 OVC065 07/06 A3029 RMK AO2 VIS 2 3/4 RWY17R TSE15TSB31E46 CIG 012 RWY17L CIG 011 RWY35R SLP255 $
KHHF 
49nm NW 
251435Z AUTO 33008KT 10SM SCT070 OVC090 06/05 A3032 RMK AO2 T00600045
TAF
KCSM 
35nm E 
251120Z 2512/2612 34018G26KT P6SM -RA OVC050 TEMPO 2512/2516 4SM -SHRA OVC012 FM251700 34018G26KT P6SM BKN050 FM260100 32005KT P6SM SKC
NOTAMs
Click for the latest NOTAMs
NOTAMs are issued by the DoD/FAA and will open in a separate window not controlled by AirNav.

 

 
 

Would you like to see your business listed on this page?

 If your business provides an interesting product or service to pilots, flight crews, aircraft, or users of the Haddock Field Airport, you should consider listing it here.  To start the listing process, click on the button below
 
Add a business
 

Other Pages about Haddock Field Airport

Update a link
 
Copyright © AirNav, LLC. All rights reserved. Privacy Policy  Contact